createdAt,value
2023-03-15T00:02:45.692Z,24.88
2023-03-15T00:06:45.626Z,24.90
2023-03-15T00:10:45.645Z,24.88
2023-03-15T00:14:45.624Z,24.91
2023-03-15T00:18:45.652Z,24.88
2023-03-15T00:22:45.699Z,24.85
2023-03-15T00:26:45.684Z,24.87
2023-03-15T00:30:45.675Z,24.85
2023-03-15T00:34:45.703Z,24.84
2023-03-15T00:38:45.761Z,24.82
2023-03-15T00:42:45.828Z,24.84
2023-03-15T00:46:45.809Z,24.85
2023-03-15T00:50:45.873Z,24.84
2023-03-15T00:54:45.898Z,24.81
2023-03-15T00:58:46.014Z,24.82
2023-03-15T01:02:46.014Z,24.81
2023-03-15T01:06:46.051Z,24.78
2023-03-15T01:10:46.082Z,24.82
2023-03-15T01:14:46.166Z,24.81
2023-03-15T01:18:46.208Z,24.80
2023-03-15T01:22:46.272Z,24.80
2023-03-15T01:26:46.354Z,24.78
2023-03-15T01:30:46.373Z,24.78
2023-03-15T01:34:46.451Z,24.77
2023-03-15T01:38:46.501Z,24.78
2023-03-15T01:42:46.567Z,24.75
2023-03-15T01:46:46.761Z,24.77
2023-03-15T01:50:46.683Z,24.75
2023-03-15T01:54:46.785Z,24.77
2023-03-15T01:58:46.764Z,24.75
2023-03-15T02:02:46.839Z,24.74
2023-03-15T02:06:46.908Z,24.72
2023-03-15T02:10:46.983Z,24.72
2023-03-15T02:14:47.043Z,24.71
2023-03-15T02:18:47.126Z,24.71
2023-03-15T02:22:47.198Z,24.72
2023-03-15T02:26:49.330Z,24.72
2023-03-15T02:30:47.328Z,24.71
2023-03-15T02:34:47.405Z,24.70
2023-03-15T02:38:47.478Z,24.72
2023-03-15T02:42:47.520Z,24.70
2023-03-15T02:46:47.579Z,24.70
2023-03-15T02:50:47.677Z,24.70
2023-03-15T02:54:47.716Z,24.70
2023-03-15T02:58:47.826Z,24.68
2023-03-15T03:02:47.988Z,24.67
2023-03-15T03:06:48.032Z,24.66
2023-03-15T03:10:48.129Z,24.64
2023-03-15T03:14:48.228Z,24.66
2023-03-15T03:18:48.343Z,24.66
2023-03-15T03:22:48.432Z,24.63
2023-03-15T03:26:48.568Z,24.64
2023-03-15T03:30:48.594Z,24.61
2023-03-15T03:34:48.745Z,24.63
2023-03-15T03:38:48.704Z,24.61
2023-03-15T03:42:48.728Z,24.61
2023-03-15T03:46:48.835Z,24.63
2023-03-15T03:50:48.840Z,24.63
2023-03-15T03:54:48.863Z,24.60
2023-03-15T03:58:48.965Z,24.60
2023-03-15T04:02:49.006Z,24.64
2023-03-15T04:06:49.038Z,24.61
2023-03-15T04:10:49.073Z,24.57
2023-03-15T04:14:49.143Z,24.59
2023-03-15T04:18:49.225Z,24.60
2023-03-15T04:22:49.308Z,24.57
2023-03-15T04:26:49.349Z,24.57
2023-03-15T04:30:49.454Z,24.57
2023-03-15T04:34:49.561Z,24.57
2023-03-15T04:38:49.634Z,24.54
2023-03-15T04:42:49.702Z,24.56
2023-03-15T04:46:49.848Z,24.53
2023-03-15T04:50:49.961Z,24.51
2023-03-15T04:54:50.005Z,24.50
2023-03-15T04:58:50.121Z,24.49
2023-03-15T05:02:50.244Z,24.50
2023-03-15T05:06:50.366Z,24.50
2023-03-15T05:10:50.428Z,24.50
2023-03-15T05:14:52.544Z,24.49
2023-03-15T05:18:50.513Z,24.50
2023-03-15T05:22:50.489Z,24.50
2023-03-15T05:26:50.434Z,24.47
2023-03-15T05:30:50.394Z,24.50
2023-03-15T05:34:50.353Z,24.47
2023-03-15T05:38:50.356Z,24.49
2023-03-15T05:42:50.298Z,24.46
2023-03-15T05:46:50.355Z,24.46
2023-03-15T05:50:50.218Z,24.46
2023-03-15T05:54:50.196Z,24.44
2023-03-15T05:58:50.157Z,24.44
2023-03-15T06:02:50.104Z,24.43
2023-03-15T06:06:50.051Z,24.46
2023-03-15T06:10:50.031Z,24.46
2023-03-15T06:14:50.022Z,24.43
2023-03-15T06:18:50.025Z,24.47
2023-03-15T06:22:50.152Z,24.46
2023-03-15T06:26:50.238Z,24.46
2023-03-15T06:30:50.379Z,24.49
2023-03-15T06:34:50.509Z,24.49
2023-03-15T06:38:50.604Z,24.49
2023-03-15T06:42:51.378Z,24.59
2023-03-15T06:46:50.837Z,24.64
2023-03-15T06:50:50.855Z,24.77
2023-03-15T06:54:50.960Z,24.88
2023-03-15T06:58:51.352Z,25.02
2023-03-15T07:02:51.384Z,25.12
2023-03-15T07:06:50.854Z,25.19
2023-03-15T07:10:50.840Z,25.25
2023-03-15T07:14:50.800Z,25.26
2023-03-15T07:18:50.743Z,25.29
2023-03-15T07:22:50.686Z,25.31
2023-03-15T07:26:50.699Z,25.35
2023-03-15T07:30:50.624Z,25.36
2023-03-15T07:34:50.612Z,25.38
2023-03-15T07:38:50.880Z,25.46
2023-03-15T07:42:50.850Z,25.52
2023-03-15T07:46:50.921Z,25.52
2023-03-15T07:50:50.794Z,25.62
2023-03-15T07:54:50.779Z,25.63
2023-03-15T07:58:50.898Z,25.73
2023-03-15T08:02:50.697Z,25.79
2023-03-15T08:06:50.648Z,25.80
2023-03-15T08:10:50.604Z,25.83
2023-03-15T08:14:50.584Z,25.83
2023-03-15T08:18:50.528Z,25.82
2023-03-15T08:22:50.881Z,25.82
2023-03-15T08:26:50.447Z,25.82
2023-03-15T08:30:50.458Z,25.83
2023-03-15T08:34:50.916Z,25.82
2023-03-15T08:38:50.405Z,25.82
2023-03-15T08:42:50.343Z,25.82
2023-03-15T08:46:50.446Z,25.90
2023-03-15T08:50:50.403Z,25.90
2023-03-15T08:54:50.233Z,25.90
2023-03-15T08:58:50.173Z,25.82
2023-03-15T09:02:50.219Z,25.77
2023-03-15T09:06:50.303Z,25.70
2023-03-15T09:10:50.364Z,25.66
2023-03-15T09:14:50.461Z,25.62
2023-03-15T09:18:50.553Z,25.59
2023-03-15T09:22:50.701Z,25.49
2023-03-15T09:26:50.769Z,25.52
2023-03-15T09:30:50.961Z,25.48
2023-03-15T09:34:51.041Z,25.45
2023-03-15T09:38:51.448Z,25.39
2023-03-15T09:42:51.430Z,25.50
2023-03-15T09:46:51.985Z,25.61
2023-03-15T09:50:51.431Z,25.70
2023-03-15T09:54:51.938Z,25.75
2023-03-15T09:58:51.423Z,25.76
2023-03-15T10:02:52.431Z,25.73
2023-03-15T10:06:51.456Z,25.73
2023-03-15T10:10:51.426Z,25.75
2023-03-15T10:14:51.445Z,25.70
2023-03-15T10:18:51.394Z,25.72
2023-03-15T10:22:51.347Z,25.72
2023-03-15T10:26:51.300Z,25.76
2023-03-15T10:30:51.512Z,25.76
2023-03-15T10:34:51.226Z,25.75
2023-03-15T10:38:51.488Z,25.75
2023-03-15T10:42:51.425Z,25.72
2023-03-15T10:46:51.140Z,25.79
2023-03-15T10:50:51.084Z,25.83
2023-03-15T10:54:55.365Z,25.80
2023-03-15T10:59:05.896Z,25.82
2023-03-15T11:02:52.170Z,25.85
2023-03-15T11:06:51.077Z,25.83
2023-03-15T11:10:51.037Z,25.90
2023-03-15T11:14:51.019Z,26.01
2023-03-15T11:18:50.937Z,26.12
2023-03-15T11:22:50.936Z,26.14
2023-03-15T11:26:50.944Z,26.20
2023-03-15T11:30:50.981Z,26.21
2023-03-15T11:34:50.810Z,26.24
2023-03-15T11:38:51.001Z,26.27
2023-03-15T11:42:51.497Z,26.26
2023-03-15T11:46:51.243Z,26.20
2023-03-15T11:50:51.471Z,26.20
2023-03-15T11:54:51.489Z,26.20
2023-03-15T11:58:51.577Z,26.21
2023-03-15T12:02:51.965Z,26.28
2023-03-15T12:06:51.651Z,26.33
2023-03-15T12:10:51.590Z,26.33
2023-03-15T12:14:51.598Z,26.48
2023-03-15T12:18:51.579Z,26.78
2023-03-15T12:22:51.988Z,26.85
2023-03-15T12:26:51.602Z,26.98
2023-03-15T12:30:52.078Z,27.03
2023-03-15T12:34:52.009Z,27.12
2023-03-15T12:38:51.618Z,27.21
2023-03-15T12:42:51.606Z,27.28
2023-03-15T12:46:51.820Z,27.25
2023-03-15T12:50:51.972Z,27.36
2023-03-15T12:54:52.262Z,27.43
2023-03-15T12:58:52.204Z,27.43
2023-03-15T13:02:52.186Z,27.46
2023-03-15T13:06:52.095Z,27.52
2023-03-15T13:10:52.077Z,27.54
2023-03-15T13:14:52.033Z,27.39
2023-03-15T13:18:51.965Z,27.24
2023-03-15T13:22:55.725Z,27.16
2023-03-15T13:26:51.951Z,27.13
2023-03-15T13:30:51.912Z,27.26
2023-03-15T13:34:51.836Z,27.42
2023-03-15T13:38:51.847Z,27.46
2023-03-15T13:42:51.883Z,27.32
2023-03-15T13:46:52.234Z,27.40
2023-03-15T13:50:52.079Z,27.25
2023-03-15T13:54:52.028Z,27.15
2023-03-15T13:58:52.054Z,27.12
2023-03-15T14:02:52.017Z,27.05
2023-03-15T14:06:51.908Z,26.95
2023-03-15T14:10:51.916Z,27.01
2023-03-15T14:14:51.891Z,27.01
2023-03-15T14:18:51.800Z,26.92
2023-03-15T14:22:52.321Z,26.87
2023-03-15T14:26:51.760Z,26.82
2023-03-15T14:30:51.753Z,26.84
2023-03-15T14:34:51.683Z,26.79
2023-03-15T14:38:51.671Z,26.71
2023-03-15T14:42:51.655Z,26.68
2023-03-15T14:46:51.604Z,26.64
2023-03-15T14:50:51.561Z,26.64
2023-03-15T14:54:51.529Z,26.55
2023-03-15T14:58:51.479Z,26.55
2023-03-15T15:02:51.421Z,26.50
2023-03-15T15:06:51.442Z,26.44
2023-03-15T15:10:51.382Z,26.41
2023-03-15T15:14:51.441Z,26.38
2023-03-15T15:18:51.322Z,26.33
2023-03-15T15:22:51.546Z,26.37
2023-03-15T15:26:51.524Z,26.33
2023-03-15T15:30:53.291Z,26.36
2023-03-15T15:34:51.720Z,26.37
2023-03-15T15:38:51.814Z,26.30
2023-03-15T15:42:51.976Z,26.26
2023-03-15T15:46:52.123Z,26.24
2023-03-15T15:50:52.313Z,26.20
2023-03-15T15:54:52.489Z,26.17
2023-03-15T15:58:52.718Z,26.12
2023-03-15T16:02:53.020Z,26.10
2023-03-15T16:06:52.829Z,26.07
2023-03-15T16:10:52.858Z,26.03
2023-03-15T16:14:52.843Z,25.99
2023-03-15T16:18:52.785Z,25.95
2023-03-15T16:22:52.801Z,25.96
2023-03-15T16:26:52.686Z,25.90
2023-03-15T16:30:52.718Z,25.87
2023-03-15T16:34:52.650Z,25.82
2023-03-15T16:38:52.654Z,25.82
2023-03-15T16:42:52.564Z,25.79
2023-03-15T16:46:52.619Z,25.77
2023-03-15T16:50:52.470Z,25.76
2023-03-15T16:54:52.453Z,25.75
2023-03-15T16:58:52.392Z,25.73
2023-03-15T17:02:52.427Z,25.68
2023-03-15T17:06:52.399Z,25.70
2023-03-15T17:10:52.486Z,25.66
2023-03-15T17:14:52.301Z,25.65
2023-03-15T17:18:52.347Z,25.63
2023-03-15T17:22:52.392Z,25.59
2023-03-15T17:26:52.423Z,25.59
2023-03-15T17:30:59.621Z,25.56
2023-03-15T17:34:53.457Z,25.55
2023-03-15T17:38:52.416Z,25.52
2023-03-15T17:42:52.395Z,25.55
2023-03-15T17:46:52.437Z,25.50
2023-03-15T17:50:52.337Z,25.46
2023-03-15T17:54:59.413Z,25.46
2023-03-15T17:58:52.339Z,25.45
2023-03-15T18:02:56.574Z,25.42
2023-03-15T18:06:52.268Z,25.41
2023-03-15T18:10:52.244Z,25.41
2023-03-15T18:14:52.227Z,25.39
2023-03-15T18:18:52.203Z,25.39
2023-03-15T18:22:52.155Z,25.36
2023-03-15T18:26:52.120Z,25.36
2023-03-15T18:30:52.186Z,25.33
2023-03-15T18:34:52.357Z,25.36
2023-03-15T18:38:52.598Z,25.33
2023-03-15T18:42:52.744Z,25.33
2023-03-15T18:46:52.849Z,25.32
2023-03-15T18:50:53.030Z,25.33
2023-03-15T18:54:53.199Z,25.33
2023-03-15T18:58:53.391Z,25.29
2023-03-15T19:02:53.547Z,25.32
2023-03-15T19:06:53.750Z,25.29
2023-03-15T19:10:53.882Z,25.28
2023-03-15T19:14:54.093Z,25.25
2023-03-15T19:18:54.259Z,25.26
2023-03-15T19:22:54.441Z,25.25
2023-03-15T19:26:54.627Z,25.24
2023-03-15T19:30:54.899Z,25.24
2023-03-15T19:34:55.080Z,25.22
2023-03-15T19:38:55.318Z,25.21
2023-03-15T19:42:55.282Z,25.18
2023-03-15T19:46:55.236Z,25.18
2023-03-15T19:50:55.201Z,25.18
2023-03-15T19:54:55.205Z,25.17
2023-03-15T19:58:55.140Z,25.14
2023-03-15T20:02:55.076Z,25.12
2023-03-15T20:06:55.097Z,25.11
2023-03-15T20:10:55.038Z,25.11
2023-03-15T20:14:55.004Z,25.12
2023-03-15T20:18:55.062Z,25.12
2023-03-15T20:22:55.044Z,25.08
2023-03-15T20:26:54.982Z,25.10
2023-03-15T20:30:54.962Z,25.08
2023-03-15T20:34:54.915Z,25.07
2023-03-15T20:38:54.931Z,25.08
2023-03-15T20:42:54.840Z,25.07
2023-03-15T20:46:54.933Z,25.05
2023-03-15T20:50:54.790Z,25.05
2023-03-15T20:54:54.761Z,25.07
2023-03-15T20:58:54.687Z,25.07
2023-03-15T21:02:54.948Z,25.05
2023-03-15T21:06:55.112Z,25.04
2023-03-15T21:10:55.364Z,25.02
2023-03-15T21:14:55.581Z,25.01
2023-03-15T21:18:55.548Z,25.01
2023-03-15T21:22:55.475Z,25.01
2023-03-15T21:26:55.425Z,24.98
2023-03-15T21:30:55.400Z,24.99
2023-03-15T21:34:55.384Z,24.99
2023-03-15T21:38:55.341Z,24.97
2023-03-15T21:42:55.298Z,24.97
2023-03-15T21:46:55.256Z,24.95
2023-03-15T21:50:55.237Z,24.95
2023-03-15T21:54:55.200Z,24.94
2023-03-15T21:58:55.138Z,24.94
2023-03-15T22:02:55.955Z,24.92
2023-03-15T22:06:55.086Z,24.91
2023-03-15T22:10:55.054Z,24.90
2023-03-15T22:15:05.252Z,24.88
2023-03-15T22:18:55.997Z,24.90
2023-03-15T22:22:54.930Z,24.91
2023-03-15T22:26:54.898Z,24.88
2023-03-15T22:30:54.949Z,24.88
2023-03-15T22:34:54.832Z,24.85
2023-03-15T22:38:54.799Z,24.87
2023-03-15T22:42:54.795Z,24.85
2023-03-15T22:46:55.695Z,24.85
2023-03-15T22:50:54.811Z,24.84
2023-03-15T22:54:54.885Z,24.84
2023-03-15T22:58:54.873Z,24.84
2023-03-15T23:02:54.880Z,24.82
2023-03-15T23:06:54.921Z,24.82
2023-03-15T23:10:54.929Z,24.85
2023-03-15T23:14:54.931Z,24.82
2023-03-15T23:18:54.962Z,24.81
2023-03-15T23:22:54.940Z,24.82
2023-03-15T23:26:54.989Z,24.78
2023-03-15T23:30:55.038Z,24.80
2023-03-15T23:34:55.130Z,24.77
2023-03-15T23:38:55.221Z,24.77
2023-03-15T23:42:55.170Z,24.78
2023-03-15T23:46:55.292Z,24.77
2023-03-15T23:50:55.279Z,24.74
2023-03-15T23:54:55.304Z,24.74
2023-03-15T23:58:55.372Z,24.75
